Burin Sea — VCXN — position and weather

sailwx.info

Track history (hours):
 
Tides and Currents Weather Stations Pressure Air Temp Water Temp Dewpoint Dewpoint Depression Visibility Wind Speed Wind Dir Waves Ship Positions

Burin Sea

Last reported at 2014-Nov-26 03:32 UTC. Time now 2014-Nov-29 08:38 UTC.
Position N 47°33' W 052°34'.

Length 82 m; draft 5.7 m.

Type: Tug. MMSI: 316300000.

Date/timePositionNaut miles runAvg speedWind from/ knotsBaromVisibWave heightAir tempDewpointWater temp
2014-Nov-26 03:32N 47°33' W 052°34'5 5.0
2014-Nov-26 02:29N 47°34' W 052°42'0 0.0
2014-Nov-26 01:31N 47°34' W 052°42'0 0.0
2014-Nov-26 00:28N 47°34' W 052°42'0 0.0
2014-Nov-25 23:29N 47°34' W 052°42'0 0.0
2014-Nov-25 22:31N 47°34' W 052°42'0 0.0
2014-Nov-25 21:30N 47°34' W 052°42'0 0.0
2014-Nov-25 20:31N 47°34' W 052°42'0 0.0
2014-Nov-25 19:34N 47°34' W 052°42'0 0.0
2014-Nov-25 18:32N 47°34' W 052°42'0 0.0
2014-Nov-25 17:33N 47°34' W 052°42'0 0.0
2014-Nov-25 16:30N 47°34' W 052°42'0 0.0
2014-Nov-25 15:32N 47°34' W 052°42'0 0.0
2014-Nov-25 14:31N 47°34' W 052°42'0 0.0
2014-Nov-25 13:30N 47°34' W 052°42'0 0.0
2014-Nov-25 12:29N 47°34' W 052°42'0 0.0
2014-Nov-25 11:33N 47°34' W 052°42'0 0.0
2014-Nov-25 10:32N 47°34' W 052°42'0 0.0
2014-Nov-25 09:31N 47°34' W 052°42'0 0.0
2014-Nov-25 08:30N 47°34' W 052°42'0 0.0
2014-Nov-25 07:30N 47°34' W 052°42'0 0.3
2014-Nov-25 06:29N 47°34' W 052°42'0 0.0
2014-Nov-25 05:33N 47°34' W 052°42'0 0.0
2014-Nov-25 04:30N 47°34' W 052°42'0 0.0
2014-Nov-25 03:33N 47°34' W 052°42'0 0.0
2014-Nov-25 02:32N 47°34' W 052°42'0 0.4
2014-Nov-25 01:31N 47°34' W 052°42'0 0.0
2014-Nov-24 21:30N 47°34' W 052°42'5 4.5
2014-Nov-24 20:30N 47°35' W 052°36'1 1.1
2014-Nov-24 19:33N 47°34' W 052°37'1 0.6
2014-Nov-24 18:05N 47°35' W 052°36'0 0.2
2014-Nov-24 17:11N 47°35' W 052°36'4 0.2
2014-Nov-23 17:05N 47°33' W 052°43'0 0.0
2014-Nov-23 16:33N 47°33' W 052°43'0 0.0
2014-Nov-23 15:31N 47°33' W 052°43'0 0.0
2014-Nov-23 14:28N 47°33' W 052°43'0 0.0
2014-Nov-23 00:26N 47°33' W 052°43'0 0.0
2014-Nov-22 23:32N 47°33' W 052°43'0 0.0
2014-Nov-22 22:33N 47°33' W 052°43'0 0.0
2014-Nov-22 21:25N 47°33' W 052°43'0 0.0
2014-Nov-22 20:28N 47°33' W 052°43'0 0.0
2014-Nov-22 17:18N 47°33' W 052°43'0 0.0
2014-Nov-22 16:31N 47°33' W 052°43'0 0.0
2014-Nov-22 15:32N 47°33' W 052°43'0 0.0
2014-Nov-22 13:24N 47°33' W 052°43'0 0.1
2014-Nov-22 12:28N 47°33' W 052°43'0 0.0
2014-Nov-22 11:31N 47°33' W 052°43'0 0.0
2014-Nov-22 10:29N 47°33' W 052°43'0 0.0
2014-Nov-22 09:18N 47°33' W 052°43'0 0.0
2014-Nov-21 16:23N 47°33' W 052°43'0 0.0
2014-Nov-21 15:33N 47°33' W 052°43'0 0.0
2014-Nov-21 14:30N 47°33' W 052°43'0 0.0
2014-Nov-21 13:31N 47°33' W 052°43'0 0.0
2014-Nov-21 12:32N 47°33' W 052°43'0 0.0
2014-Nov-21 11:26N 47°33' W 052°43'0 0.0
2014-Nov-21 10:33N 47°33' W 052°43'0 0.0
2014-Nov-21 09:28N 47°33' W 052°43'0 0.0
2014-Nov-21 08:31N 47°33' W 052°43'0 0.0
2014-Nov-21 07:23N 47°33' W 052°43'0 0.0
2014-Nov-21 06:30N 47°33' W 052°43'0 0.0
2014-Nov-21 04:31N 47°33' W 052°43'0 0.0
2014-Nov-21 03:05N 47°33' W 052°43'0 0.0
2014-Nov-20 23:20N 47°33' W 052°43'0 0.0
2014-Nov-20 10:04N 47°33' W 052°43'0 0.0
2014-Nov-20 09:28N 47°33' W 052°43'0 0.0
2014-Nov-20 08:32N 47°33' W 052°43'0 0.0
2014-Nov-20 07:33N 47°33' W 052°43'0 0.0
2014-Nov-20 06:30N 47°33' W 052°43'0 0.0
2014-Nov-20 04:26N 47°33' W 052°43'0 0.0
2014-Nov-20 03:32N 47°33' W 052°43'0 0.0
2014-Nov-20 01:25N 47°33' W 052°43'0 0.0
2014-Nov-20 00:31N 47°33' W 052°43'0 0.0
2014-Nov-19 23:14N 47°33' W 052°43'0 0.0
2014-Nov-19 22:21N 47°33' W 052°43'0 0.0
2014-Nov-19 21:33N 47°33' W 052°43'0 0.0
2014-Nov-19 20:31N 47°33' W 052°43'0 0.0
2014-Nov-19 16:16N 47°33' W 052°43'0 0.0
2014-Nov-19 14:11N 47°33' W 052°43'0 0.0
2014-Nov-19 04:21N 47°33' W 052°43'0 0.0
2014-Nov-19 03:27N 47°33' W 052°43'0 0.0
2014-Nov-19 02:19N 47°33' W 052°43'0 0.0
2014-Nov-19 01:32N 47°33' W 052°43'0 0.0
2014-Nov-19 00:32N 47°33' W 052°43'0 0.0
2014-Nov-18 23:30N 47°33' W 052°43'0 0.0
2014-Nov-18 22:28N 47°33' W 052°43'0 0.0
2014-Nov-18 21:25N 47°33' W 052°43'0 0.0
2014-Nov-18 20:32N 47°33' W 052°43'0 0.0
2014-Nov-18 19:30N 47°33' W 052°43'0 0.0
2014-Nov-18 18:30N 47°33' W 052°43'0 0.0
2014-Nov-18 17:31N 47°33' W 052°43'0 0.0
2014-Nov-18 16:23N 47°33' W 052°43'0 0.0
2014-Nov-18 15:32N 47°33' W 052°43'0 0.0
2014-Nov-18 14:33N 47°33' W 052°43'0 0.0
2014-Nov-18 13:28N 47°33' W 052°43'0 0.0
2014-Nov-18 12:26N 47°33' W 052°43'0 0.0
2014-Nov-18 11:32N 47°33' W 052°43'0 0.0
2014-Nov-18 10:33N 47°33' W 052°43'0 0.0
2014-Nov-18 09:30N 47°33' W 052°43'0 0.0
2014-Nov-18 08:22N 47°33' W 052°43'0 0.0
2014-Nov-18 07:29N 47°33' W 052°43'0 0.0
2014-Nov-18 06:32N 47°33' W 052°43'0 0.0
2014-Nov-18 05:33N 47°33' W 052°43'0 0.0
2014-Nov-18 04:31N 47°33' W 052°43'0 0.0
2014-Nov-18 03:31N 47°33' W 052°43'0 0.0
2014-Nov-18 02:29N 47°33' W 052°43'0 0.0
2014-Nov-18 01:30N 47°33' W 052°43'0 0.0
2014-Nov-18 00:28N 47°33' W 052°43'0 0.0
2014-Nov-17 23:16N 47°33' W 052°43'0 0.0
2014-Nov-17 22:23N 47°33' W 052°43'0 0.0
2014-Nov-17 21:33N 47°33' W 052°43'0 0.0
2014-Nov-17 20:33N 47°33' W 052°43'0 0.0
2014-Nov-17 19:28N 47°33' W 052°43'0 0.0
2014-Nov-17 18:32N 47°33' W 052°43'0 0.0
2014-Nov-17 17:26N 47°33' W 052°43'0 0.0
2014-Nov-17 16:24N 47°33' W 052°43'0 0.0
2014-Nov-17 15:34N 47°33' W 052°43'0 0.0
2014-Nov-17 14:31N 47°33' W 052°43'0 0.0
2014-Nov-17 13:32N 47°33' W 052°43'0 0.0
2014-Nov-17 12:15N 47°33' W 052°43'0 0.0
2014-Nov-17 11:30N 47°33' W 052°43'0 0.0
2014-Nov-17 10:28N 47°33' W 052°43'0 0.0
2014-Nov-17 09:29N 47°33' W 052°43'0 0.0
2014-Nov-17 08:29N 47°33' W 052°43'0 0.0
2014-Nov-17 07:30N 47°33' W 052°43'0 0.0
2014-Nov-17 06:31N 47°33' W 052°43'0 0.0
2014-Nov-17 05:31N 47°33' W 052°43'0 0.0
2014-Nov-17 04:32N 47°33' W 052°43'0 0.0
2014-Nov-17 03:27N 47°33' W 052°43'0 0.0
2014-Nov-17 01:31N 47°33' W 052°43'0 0.0
2014-Nov-17 00:29N 47°33' W 052°43'0 0.0
2014-Nov-16 23:32N 47°33' W 052°43'0 0.0
2014-Nov-16 22:30N 47°33' W 052°43'0 0.0
2014-Nov-16 21:22N 47°33' W 052°43'0 0.0
2014-Nov-16 20:25N 47°33' W 052°43'0 0.0
2014-Nov-16 19:32N 47°33' W 052°43'0 0.0
2014-Nov-16 18:24N 47°33' W 052°43'0 0.0
2014-Nov-16 17:33N 47°33' W 052°43'0 0.0
2014-Nov-16 16:22N 47°33' W 052°43'0 0.0
2014-Nov-16 15:26N 47°33' W 052°43'0 0.0
2014-Nov-16 14:23N 47°33' W 052°43'0 0.0
2014-Nov-16 13:30N 47°33' W 052°43'0 0.0
2014-Nov-16 12:31N 47°33' W 052°43'0 0.0
2014-Nov-16 11:19N 47°33' W 052°43'0 0.0
2014-Nov-16 10:26N 47°33' W 052°43'0 0.0
2014-Nov-16 09:27N 47°33' W 052°43'0 0.0
2014-Nov-16 08:10N 47°33' W 052°43'0 0.0
2014-Nov-16 07:22N 47°33' W 052°43'0 0.0
2014-Nov-16 06:29N 47°33' W 052°43'0 0.0
2014-Nov-16 05:29N 47°33' W 052°43'  
Track history (hours):
 
Tides and Currents Weather Stations Pressure Air Temp Water Temp Dewpoint Dewpoint Depression Visibility Wind Speed Wind Dir Waves Ship Positions

Burin Sea

Last reported at 2014-Nov-26 03:32 UTC. Time now 2014-Nov-29 08:38 UTC.
Position N 47°33' W 052°34'.

Length 82 m; draft 5.7 m.

Type: Tug. MMSI: 316300000.

Date/timePositionNaut miles runAvg speedWind from/ knotsBaromVisibWave heightAir tempDewpointWater temp
2014-Nov-26 03:32N 47°33' W 052°34'5 5.0
2014-Nov-26 02:29N 47°34' W 052°42'0 0.0
2014-Nov-26 01:31N 47°34' W 052°42'0 0.0
2014-Nov-26 00:28N 47°34' W 052°42'0 0.0
2014-Nov-25 23:29N 47°34' W 052°42'0 0.0
2014-Nov-25 22:31N 47°34' W 052°42'0 0.0
2014-Nov-25 21:30N 47°34' W 052°42'0 0.0
2014-Nov-25 20:31N 47°34' W 052°42'0 0.0
2014-Nov-25 19:34N 47°34' W 052°42'0 0.0
2014-Nov-25 18:32N 47°34' W 052°42'0 0.0
2014-Nov-25 17:33N 47°34' W 052°42'0 0.0
2014-Nov-25 16:30N 47°34' W 052°42'0 0.0
2014-Nov-25 15:32N 47°34' W 052°42'0 0.0
2014-Nov-25 14:31N 47°34' W 052°42'0 0.0
2014-Nov-25 13:30N 47°34' W 052°42'0 0.0
2014-Nov-25 12:29N 47°34' W 052°42'0 0.0
2014-Nov-25 11:33N 47°34' W 052°42'0 0.0
2014-Nov-25 10:32N 47°34' W 052°42'0 0.0
2014-Nov-25 09:31N 47°34' W 052°42'0 0.0
2014-Nov-25 08:30N 47°34' W 052°42'0 0.0
2014-Nov-25 07:30N 47°34' W 052°42'0 0.3
2014-Nov-25 06:29N 47°34' W 052°42'0 0.0
2014-Nov-25 05:33N 47°34' W 052°42'0 0.0
2014-Nov-25 04:30N 47°34' W 052°42'0 0.0
2014-Nov-25 03:33N 47°34' W 052°42'0 0.0
2014-Nov-25 02:32N 47°34' W 052°42'0 0.4
2014-Nov-25 01:31N 47°34' W 052°42'0 0.0
2014-Nov-24 21:30N 47°34' W 052°42'5 4.5
2014-Nov-24 20:30N 47°35' W 052°36'1 1.1
2014-Nov-24 19:33N 47°34' W 052°37'1 0.6
2014-Nov-24 18:05N 47°35' W 052°36'0 0.2
2014-Nov-24 17:11N 47°35' W 052°36'4 0.2
2014-Nov-23 17:05N 47°33' W 052°43'0 0.0
2014-Nov-23 16:33N 47°33' W 052°43'0 0.0
2014-Nov-23 15:31N 47°33' W 052°43'0 0.0
2014-Nov-23 14:28N 47°33' W 052°43'0 0.0
2014-Nov-23 00:26N 47°33' W 052°43'0 0.0
2014-Nov-22 23:32N 47°33' W 052°43'0 0.0
2014-Nov-22 22:33N 47°33' W 052°43'0 0.0
2014-Nov-22 21:25N 47°33' W 052°43'0 0.0
2014-Nov-22 20:28N 47°33' W 052°43'0 0.0
2014-Nov-22 17:18N 47°33' W 052°43'0 0.0
2014-Nov-22 16:31N 47°33' W 052°43'0 0.0
2014-Nov-22 15:32N 47°33' W 052°43'0 0.0
2014-Nov-22 13:24N 47°33' W 052°43'0 0.1
2014-Nov-22 12:28N 47°33' W 052°43'0 0.0
2014-Nov-22 11:31N 47°33' W 052°43'0 0.0
2014-Nov-22 10:29N 47°33' W 052°43'0 0.0
2014-Nov-22 09:18N 47°33' W 052°43'0 0.0
2014-Nov-21 16:23N 47°33' W 052°43'0 0.0
2014-Nov-21 15:33N 47°33' W 052°43'0 0.0
2014-Nov-21 14:30N 47°33' W 052°43'0 0.0
2014-Nov-21 13:31N 47°33' W 052°43'0 0.0
2014-Nov-21 12:32N 47°33' W 052°43'0 0.0
2014-Nov-21 11:26N 47°33' W 052°43'0 0.0
2014-Nov-21 10:33N 47°33' W 052°43'0 0.0
2014-Nov-21 09:28N 47°33' W 052°43'0 0.0
2014-Nov-21 08:31N 47°33' W 052°43'0 0.0
2014-Nov-21 07:23N 47°33' W 052°43'0 0.0
2014-Nov-21 06:30N 47°33' W 052°43'0 0.0
2014-Nov-21 04:31N 47°33' W 052°43'0 0.0
2014-Nov-21 03:05N 47°33' W 052°43'0 0.0
2014-Nov-20 23:20N 47°33' W 052°43'0 0.0
2014-Nov-20 10:04N 47°33' W 052°43'0 0.0
2014-Nov-20 09:28N 47°33' W 052°43'0 0.0
2014-Nov-20 08:32N 47°33' W 052°43'0 0.0
2014-Nov-20 07:33N 47°33' W 052°43'0 0.0
2014-Nov-20 06:30N 47°33' W 052°43'0 0.0
2014-Nov-20 04:26N 47°33' W 052°43'0 0.0
2014-Nov-20 03:32N 47°33' W 052°43'0 0.0
2014-Nov-20 01:25N 47°33' W 052°43'0 0.0
2014-Nov-20 00:31N 47°33' W 052°43'0 0.0
2014-Nov-19 23:14N 47°33' W 052°43'0 0.0
2014-Nov-19 22:21N 47°33' W 052°43'0 0.0
2014-Nov-19 21:33N 47°33' W 052°43'0 0.0
2014-Nov-19 20:31N 47°33' W 052°43'0 0.0
2014-Nov-19 16:16N 47°33' W 052°43'0 0.0
2014-Nov-19 14:11N 47°33' W 052°43'0 0.0
2014-Nov-19 04:21N 47°33' W 052°43'0 0.0
2014-Nov-19 03:27N 47°33' W 052°43'0 0.0
2014-Nov-19 02:19N 47°33' W 052°43'0 0.0
2014-Nov-19 01:32N 47°33' W 052°43'0 0.0
2014-Nov-19 00:32N 47°33' W 052°43'0 0.0
2014-Nov-18 23:30N 47°33' W 052°43'0 0.0
2014-Nov-18 22:28N 47°33' W 052°43'0 0.0
2014-Nov-18 21:25N 47°33' W 052°43'0 0.0
2014-Nov-18 20:32N 47°33' W 052°43'0 0.0
2014-Nov-18 19:30N 47°33' W 052°43'0 0.0
2014-Nov-18 18:30N 47°33' W 052°43'0 0.0
2014-Nov-18 17:31N 47°33' W 052°43'0 0.0
2014-Nov-18 16:23N 47°33' W 052°43'0 0.0
2014-Nov-18 15:32N 47°33' W 052°43'0 0.0
2014-Nov-18 14:33N 47°33' W 052°43'0 0.0
2014-Nov-18 13:28N 47°33' W 052°43'0 0.0
2014-Nov-18 12:26N 47°33' W 052°43'0 0.0
2014-Nov-18 11:32N 47°33' W 052°43'0 0.0
2014-Nov-18 10:33N 47°33' W 052°43'0 0.0
2014-Nov-18 09:30N 47°33' W 052°43'0 0.0
2014-Nov-18 08:22N 47°33' W 052°43'0 0.0
2014-Nov-18 07:29N 47°33' W 052°43'0 0.0
2014-Nov-18 06:32N 47°33' W 052°43'0 0.0
2014-Nov-18 05:33N 47°33' W 052°43'0 0.0
2014-Nov-18 04:31N 47°33' W 052°43'0 0.0
2014-Nov-18 03:31N 47°33' W 052°43'0 0.0
2014-Nov-18 02:29N 47°33' W 052°43'0 0.0
2014-Nov-18 01:30N 47°33' W 052°43'0 0.0
2014-Nov-18 00:28N 47°33' W 052°43'0 0.0
2014-Nov-17 23:16N 47°33' W 052°43'0 0.0
2014-Nov-17 22:23N 47°33' W 052°43'0 0.0
2014-Nov-17 21:33N 47°33' W 052°43'0 0.0
2014-Nov-17 20:33N 47°33' W 052°43'0 0.0
2014-Nov-17 19:28N 47°33' W 052°43'0 0.0
2014-Nov-17 18:32N 47°33' W 052°43'0 0.0
2014-Nov-17 17:26N 47°33' W 052°43'0 0.0
2014-Nov-17 16:24N 47°33' W 052°43'0 0.0
2014-Nov-17 15:34N 47°33' W 052°43'0 0.0
2014-Nov-17 14:31N 47°33' W 052°43'0 0.0
2014-Nov-17 13:32N 47°33' W 052°43'0 0.0
2014-Nov-17 12:15N 47°33' W 052°43'0 0.0
2014-Nov-17 11:30N 47°33' W 052°43'0 0.0
2014-Nov-17 10:28N 47°33' W 052°43'0 0.0
2014-Nov-17 09:29N 47°33' W 052°43'0 0.0
2014-Nov-17 08:29N 47°33' W 052°43'0 0.0
2014-Nov-17 07:30N 47°33' W 052°43'0 0.0
2014-Nov-17 06:31N 47°33' W 052°43'0 0.0
2014-Nov-17 05:31N 47°33' W 052°43'0 0.0
2014-Nov-17 04:32N 47°33' W 052°43'0 0.0
2014-Nov-17 03:27N 47°33' W 052°43'0 0.0
2014-Nov-17 01:31N 47°33' W 052°43'0 0.0
2014-Nov-17 00:29N 47°33' W 052°43'0 0.0
2014-Nov-16 23:32N 47°33' W 052°43'0 0.0
2014-Nov-16 22:30N 47°33' W 052°43'0 0.0
2014-Nov-16 21:22N 47°33' W 052°43'0 0.0
2014-Nov-16 20:25N 47°33' W 052°43'0 0.0
2014-Nov-16 19:32N 47°33' W 052°43'0 0.0
2014-Nov-16 18:24N 47°33' W 052°43'0 0.0
2014-Nov-16 17:33N 47°33' W 052°43'0 0.0
2014-Nov-16 16:22N 47°33' W 052°43'0 0.0
2014-Nov-16 15:26N 47°33' W 052°43'0 0.0
2014-Nov-16 14:23N 47°33' W 052°43'0 0.0
2014-Nov-16 13:30N 47°33' W 052°43'0 0.0
2014-Nov-16 12:31N 47°33' W 052°43'0 0.0
2014-Nov-16 11:19N 47°33' W 052°43'0 0.0
2014-Nov-16 10:26N 47°33' W 052°43'0 0.0
2014-Nov-16 09:27N 47°33' W 052°43'0 0.0
2014-Nov-16 08:10N 47°33' W 052°43'0 0.0
2014-Nov-16 07:22N 47°33' W 052°43'0 0.0
2014-Nov-16 06:29N 47°33' W 052°43'0 0.0
2014-Nov-16 05:29N 47°33' W 052°43'  

Dump ship's entire track history